Time;durP1;ratioP1;P1;durP2;ratioP2;P2;SDS_P1;SDS_P2;PMS_P1;PMS_P2;Temp;Humidity;BMP_temperature;BMP_pressure;BME280_temperature;BME280_humidity;BME280_pressure;Samples;Min_cycle;Max_cycle;Signal;HPM_P1;HPM_P2
2023/04/29 00:01:29;;;;;;;9.90;7.00;;;;;;;-145.41;100.00;58600.66;5003049;28;20038;-74
2023/04/29 00:03:55;;;;;;;9.30;6.93;;;;;;;-145.41;100.00;58600.66;5004905;28;20038;-74
2023/04/29 00:06:21;;;;;;;9.32;7.13;;;;;;;-145.41;100.00;58600.66;5002726;28;20034;-74
2023/04/29 00:08:46;;;;;;;8.80;7.47;;;;;;;-145.41;100.00;58600.66;4987266;28;20060;-73
2023/04/29 00:11:11;;;;;;;8.65;6.43;;;;;;;-145.41;100.00;58600.66;5002191;28;20536;-73
2023/04/29 00:13:39;;;;;;;9.70;7.57;;;;;;;-145.41;100.00;58600.66;5005137;28;20049;-74
2023/04/29 00:16:05;;;;;;;8.43;6.88;;;;;;;-145.41;100.00;58600.66;4985691;28;20494;-74
2023/04/29 00:18:31;;;;;;;9.98;7.63;;;;;;;-145.41;100.00;58600.66;5001599;28;20128;-74
2023/04/29 00:20:56;;;;;;;9.07;7.15;;;;;;;-145.41;100.00;58600.66;5006221;28;20504;-73
2023/04/29 00:23:22;;;;;;;10.43;7.85;;;;;;;-145.41;100.00;58600.66;5001771;28;20494;-73
2023/04/29 00:25:47;;;;;;;11.02;8.27;;;;;;;-145.41;100.00;58600.66;5005218;28;20053;-73
2023/04/29 00:28:12;;;;;;;10.43;8.48;;;;;;;-145.41;100.00;58600.66;5008135;28;20500;-73
2023/04/29 00:30:38;;;;;;;9.30;7.53;;;;;;;-145.41;100.00;58600.66;4984088;28;20065;-74
2023/04/29 00:33:03;;;;;;;10.80;6.95;;;;;;;-145.41;100.00;58600.66;5005275;28;20428;-73
2023/04/29 00:35:28;;;;;;;9.35;7.85;;;;;;;-145.41;100.00;58600.66;5007949;28;20520;-74
2023/04/29 00:37:54;;;;;;;10.57;8.00;;;;;;;-145.41;100.00;58600.66;4995256;28;20033;-73
2023/04/29 00:40:19;;;;;;;11.00;7.70;;;;;;;-145.41;100.00;58600.66;5017200;28;20045;-73
2023/04/29 00:42:45;;;;;;;11.23;8.82;;;;;;;-145.41;100.00;58600.66;5007566;28;20071;-73
2023/04/29 00:45:10;;;;;;;10.80;7.78;;;;;;;-145.41;100.00;58600.66;4991100;28;20030;-74
2023/04/29 00:47:36;;;;;;;9.82;7.32;;;;;;;-145.41;100.00;58600.66;5007029;28;20109;-74
2023/04/29 00:50:03;;;;;;;9.50;6.55;;;;;;;-145.41;100.00;58600.66;5001962;28;20034;-73
2023/04/29 00:52:30;;;;;;;11.65;7.68;;;;;;;-145.41;100.00;58600.66;4985005;28;20040;-74
2023/04/29 00:54:56;;;;;;;9.88;7.32;;;;;;;-145.41;100.00;58600.66;5004898;28;20563;-74
2023/04/29 00:57:22;;;;;;;12.18;7.78;;;;;;;-145.41;100.00;58600.66;5004806;28;20038;-73
2023/04/29 00:59:48;;;;;;;9.85;7.90;;;;;;;-145.41;100.00;58600.66;4985158;28;20026;-73
2023/04/29 01:02:14;;;;;;;8.98;7.13;;;;;;;-145.41;100.00;58600.66;4985360;28;20046;-73
2023/04/29 01:04:39;;;;;;;9.40;7.07;;;;;;;-145.41;100.00;58600.66;5002859;28;20052;-73
2023/04/29 01:07:44;;;;;;;9.88;7.50;;;;;;;-145.41;100.00;58600.66;5004583;28;20048;-74
2023/04/29 01:10:21;;;;;;;9.57;6.63;;;;;;;-145.41;100.00;58600.66;5004047;28;20129;-74
2023/04/29 01:13:13;;;;;;;8.65;6.82;;;;;;;-145.41;100.00;58600.66;4984848;28;20416;-74
2023/04/29 01:15:48;;;;;;;10.23;7.00;;;;;;;-145.41;100.00;58600.66;4984515;28;20509;-74
2023/04/29 01:18:24;;;;;;;10.07;7.95;;;;;;;-145.41;100.00;58600.66;4990616;28;20037;-73
2023/04/29 01:20:51;;;;;;;10.13;7.20;;;;;;;-145.41;100.00;58600.66;4986675;28;20037;-73
2023/04/29 01:23:16;;;;;;;8.82;6.65;;;;;;;-145.41;100.00;58600.66;5001002;28;20101;-74
2023/04/29 01:25:42;;;;;;;9.45;7.40;;;;;;;-145.41;100.00;58600.66;4986128;28;20030;-74
2023/04/29 01:28:24;;;;;;;11.25;8.38;;;;;;;-145.41;100.00;58600.66;4985452;28;20030;-74
2023/04/29 01:31:30;;;;;;;9.85;6.80;;;;;;;-145.41;100.00;58600.66;4983349;28;20066;-74
2023/04/29 01:34:09;;;;;;;9.70;7.75;;;;;;;-145.41;100.00;58600.66;4977871;28;20041;-74
2023/04/29 01:36:56;;;;;;;9.75;7.05;;;;;;;-145.41;100.00;58600.66;4986536;28;20045;-74
2023/04/29 01:39:49;;;;;;;17.27;11.05;;;;;;;-145.41;100.00;58600.66;4990849;28;20026;-77
2023/04/29 01:42:35;;;;;;;14.98;10.50;;;;;;;-145.41;100.00;58600.66;4974689;28;20042;-76
2023/04/29 01:45:09;;;;;;;14.27;10.88;;;;;;;-145.41;100.00;58600.66;4984409;28;20038;-77
2023/04/29 01:47:36;;;;;;;15.52;10.15;;;;;;;-145.41;100.00;58600.66;4985756;28;20404;-77
2023/04/29 01:50:01;;;;;;;17.42;12.52;;;;;;;-145.41;100.00;58600.66;4986750;28;20033;-77
2023/04/29 01:52:30;;;;;;;13.65;9.90;;;;;;;-145.41;100.00;58600.66;4984185;28;20076;-76
2023/04/29 01:54:56;;;;;;;15.45;10.70;;;;;;;-145.41;100.00;58600.66;5004280;28;20477;-77
2023/04/29 01:57:22;;;;;;;14.68;10.55;;;;;;;-145.41;100.00;58600.66;4985646;28;20091;-77
2023/04/29 01:59:54;;;;;;;15.18;10.70;;;;;;;-145.41;100.00;58600.66;4982871;28;20484;-77
2023/04/29 02:02:38;;;;;;;15.32;11.27;;;;;;;-145.41;100.00;58600.66;5003166;28;20061;-77
2023/04/29 02:05:15;;;;;;;15.38;11.32;;;;;;;-145.41;100.00;58600.66;4983079;28;20084;-77
2023/04/29 02:07:48;;;;;;;16.63;11.43;;;;;;;-145.41;100.00;58600.66;4985361;28;20034;-77
2023/04/29 02:10:14;;;;;;;18.38;12.93;;;;;;;-145.41;100.00;58600.66;4984332;28;20026;-77
2023/04/29 02:12:41;;;;;;;16.13;13.18;;;;;;;-145.41;100.00;58600.66;4969128;28;20026;-77
2023/04/29 02:15:07;;;;;;;13.93;10.25;;;;;;;-145.41;100.00;58600.66;4986420;28;20037;-76
2023/04/29 02:17:33;;;;;;;15.25;10.60;;;;;;;-145.41;100.00;58600.66;4984633;28;20039;-77
2023/04/29 02:19:59;;;;;;;16.08;13.18;;;;;;;-145.41;100.00;58600.66;4989057;28;20096;-77
2023/04/29 02:22:24;;;;;;;14.32;10.23;;;;;;;-145.41;100.00;58600.66;4983985;28;20030;-77
2023/04/29 02:24:50;;;;;;;15.13;11.35;;;;;;;-145.41;100.00;58600.66;4985010;28;20034;-77
2023/04/29 02:27:16;;;;;;;12.85;9.77;;;;;;;-145.41;100.00;58600.66;5001188;28;20404;-77
2023/04/29 02:29:41;;;;;;;13.43;9.45;;;;;;;-145.41;100.00;58600.66;4984430;28;20037;-76
2023/04/29 02:32:07;;;;;;;11.82;9.30;;;;;;;-145.41;100.00;58600.66;4999468;28;20038;-76
2023/04/29 02:34:33;;;;;;;14.00;9.52;;;;;;;-145.41;100.00;58600.66;4985221;28;20046;-76
2023/04/29 02:36:59;;;;;;;11.50;9.00;;;;;;;-145.41;100.00;58600.66;4982786;28;20042;-76
2023/04/29 02:39:26;;;;;;;10.18;7.45;;;;;;;-145.41;100.00;58600.66;4985729;28;20046;-76
2023/04/29 02:41:55;;;;;;;13.52;8.82;;;;;;;-145.41;100.00;58600.66;4982153;28;20413;-76
2023/04/29 02:44:20;;;;;;;10.02;7.22;;;;;;;-145.41;100.00;58600.66;4997840;28;20136;-76
2023/04/29 02:46:45;;;;;;;9.30;7.10;;;;;;;-145.41;100.00;58600.66;4989547;28;20100;-75
2023/04/29 02:49:12;;;;;;;9.90;7.05;;;;;;;-145.41;100.00;58600.66;4989472;28;20034;-76
2023/04/29 02:51:38;;;;;;;9.18;6.28;;;;;;;-145.41;100.00;58600.66;4989612;28;20121;-76
2023/04/29 02:54:04;;;;;;;9.38;6.25;;;;;;;-145.41;100.00;58600.66;4989648;28;20030;-76
2023/04/29 02:56:29;;;;;;;10.90;6.32;;;;;;;-145.41;100.00;58600.66;4986620;28;20034;-75
2023/04/29 02:58:55;;;;;;;8.95;6.65;;;;;;;-145.41;100.00;58600.66;4988492;28;20034;-76
2023/04/29 03:01:21;;;;;;;8.93;6.10;;;;;;;-145.41;100.00;58600.66;4986481;28;20413;-76
2023/04/29 03:03:47;;;;;;;8.68;6.38;;;;;;;-145.41;100.00;58600.66;5005981;28;20036;-76
2023/04/29 03:06:14;;;;;;;9.27;6.15;;;;;;;-145.41;100.00;58600.66;4986833;28;20118;-76
2023/04/29 03:08:40;;;;;;;10.48;7.28;;;;;;;-145.41;100.00;58600.66;4987388;28;20045;-75
2023/04/29 03:11:05;;;;;;;10.18;6.72;;;;;;;-145.41;100.00;58600.66;4986818;28;20036;-76
2023/04/29 03:13:31;;;;;;;8.80;6.47;;;;;;;-145.41;100.00;58600.66;4989257;28;20129;-76
2023/04/29 03:15:58;;;;;;;8.90;6.53;;;;;;;-145.41;100.00;58600.66;5003345;28;20481;-76
2023/04/29 03:18:24;;;;;;;8.68;5.97;;;;;;;-145.41;100.00;58600.66;4984326;28;20022;-75
2023/04/29 03:20:49;;;;;;;9.48;7.30;;;;;;;-145.41;100.00;58600.66;4994069;28;20091;-76
2023/04/29 03:23:14;;;;;;;10.07;7.65;;;;;;;-145.41;100.00;58600.66;5007001;28;20030;-76
2023/04/29 03:25:40;;;;;;;10.13;7.72;;;;;;;-145.41;100.00;58600.66;4996510;28;20485;-75
2023/04/29 03:28:05;;;;;;;8.73;7.35;;;;;;;-145.41;100.00;58600.66;4986249;28;20634;-75
2023/04/29 03:30:31;;;;;;;8.93;6.85;;;;;;;-145.41;100.00;58600.66;4991914;28;20041;-75
2023/04/29 03:32:57;;;;;;;9.48;7.28;;;;;;;-145.41;100.00;58600.66;4991044;28;20058;-76
2023/04/29 03:35:23;;;;;;;9.60;6.50;;;;;;;-145.41;100.00;58600.66;4993304;28;20501;-75
2023/04/29 03:38:14;;;;;;;9.25;6.95;;;;;;;-145.41;100.00;58600.66;5004717;28;20046;-75
2023/04/29 03:40:41;;;;;;;11.15;7.28;;;;;;;-145.41;100.00;58600.66;4992802;28;20034;-76
2023/04/29 03:43:08;;;;;;;9.60;7.95;;;;;;;-145.41;100.00;58600.66;4989398;28;20382;-75
2023/04/29 03:45:34;;;;;;;10.05;7.45;;;;;;;-145.41;100.00;58600.66;4987963;28;20057;-75
2023/04/29 03:48:03;;;;;;;10.77;7.93;;;;;;;-145.41;100.00;58600.66;4984555;28;20034;-75
2023/04/29 03:50:30;;;;;;;9.80;6.95;;;;;;;-145.41;100.00;58600.66;4988208;28;20046;-75
2023/04/29 03:52:56;;;;;;;8.30;6.63;;;;;;;-145.41;100.00;58600.66;4988134;28;20038;-75
2023/04/29 03:55:22;;;;;;;9.85;7.50;;;;;;;-145.41;100.00;58600.66;4976670;28;20497;-75
2023/04/29 03:57:47;;;;;;;9.65;7.32;;;;;;;-145.41;100.00;58600.66;4996024;28;20029;-74
2023/04/29 04:00:15;;;;;;;10.82;9.02;;;;;;;-145.41;100.00;58600.66;4986970;28;20622;-75
2023/04/29 04:02:47;;;;;;;;;;;;;;;-145.41;100.00;58600.66;4987317;28;20449;-75
2023/04/29 04:05:13;;;;;;;11.25;7.60;;;;;;;-145.41;100.00;58600.66;4986060;28;19952;-74
2023/04/29 04:07:42;;;;;;;10.68;7.72;;;;;;;-145.41;100.00;58600.66;4985245;28;20053;-75
2023/04/29 04:10:27;;;;;;;10.02;7.45;;;;;;;-145.41;100.00;58600.66;5007713;28;20145;-75
2023/04/29 04:12:53;;;;;;;9.88;7.38;;;;;;;-145.41;100.00;58600.66;4996624;23;20418;-73
2023/04/29 04:15:19;;;;;;;10.90;7.65;;;;;;;-145.41;100.00;58600.66;4963259;28;20130;-74
2023/04/29 04:17:45;;;;;;;11.18;8.35;;;;;;;-145.41;100.00;58600.66;4973815;28;20177;-74
2023/04/29 04:20:12;;;;;;;14.75;9.43;;;;;;;-145.41;100.00;58600.66;4989328;28;20388;-74
2023/04/29 04:22:37;;;;;;;12.23;9.38;;;;;;;-145.41;100.00;58600.66;4972318;28;20038;-74
2023/04/29 04:25:12;;;;;;;13.27;9.13;;;;;;;-145.41;100.00;58600.66;4976284;28;20527;-74
2023/04/29 04:27:38;;;;;;;10.70;8.30;;;;;;;-145.41;100.00;58600.66;4964498;28;20039;-74
2023/04/29 04:30:08;;;;;;;14.77;10.48;;;;;;;-145.41;100.00;58600.66;4975925;28;20041;-74
2023/04/29 04:32:34;;;;;;;10.15;7.93;;;;;;;-145.41;100.00;58600.66;4987295;28;20027;-74
2023/04/29 04:35:00;;;;;;;11.18;8.25;;;;;;;-145.41;100.00;58600.66;4971031;28;20034;-74
2023/04/29 04:37:25;;;;;;;12.27;9.25;;;;;;;-145.41;100.00;58600.66;4986112;28;20097;-74
2023/04/29 04:39:53;;;;;;;11.55;9.05;;;;;;;-145.41;100.00;58600.66;4982733;28;20464;-74
2023/04/29 04:42:18;;;;;;;12.82;9.10;;;;;;;-145.41;100.00;58600.66;4972376;28;20035;-74
2023/04/29 04:44:45;;;;;;;12.57;8.82;;;;;;;-145.41;100.00;58600.66;4985767;28;20089;-74
2023/04/29 04:47:18;;;;;;;11.07;8.63;;;;;;;-145.41;100.00;58600.66;4967056;28;20113;-74
2023/04/29 04:49:49;;;;;;;13.20;8.80;;;;;;;-145.41;100.00;58600.66;4967497;28;20042;-74
2023/04/29 04:52:15;;;;;;;11.07;8.57;;;;;;;-145.41;100.00;58600.66;4968671;28;20035;-74
2023/04/29 04:54:45;;;;;;;13.75;9.73;;;;;;;-145.41;100.00;58600.66;4964667;28;20038;-74
2023/04/29 04:57:15;;;;;;;11.80;9.98;;;;;;;-145.41;100.00;58600.66;4966637;28;20041;-74
2023/04/29 04:59:42;;;;;;;14.27;10.02;;;;;;;-145.41;100.00;58600.66;4965038;28;20027;-74
2023/04/29 05:02:07;;;;;;;12.80;8.88;;;;;;;-145.41;100.00;58600.66;4966243;28;20408;-74
2023/04/29 05:04:32;;;;;;;10.88;8.23;;;;;;;-145.41;100.00;58600.66;4968790;28;20062;-74
2023/04/29 05:06:58;;;;;;;12.02;8.38;;;;;;;-145.41;100.00;58600.66;4972307;28;20038;-74
2023/04/29 05:09:27;;;;;;;10.15;7.70;;;;;;;-145.41;100.00;58600.66;4965738;28;20126;-74
2023/04/29 05:11:53;;;;;;;11.13;7.82;;;;;;;-145.41;100.00;58600.66;4965203;28;20034;-74
2023/04/29 05:14:18;;;;;;;12.90;10.00;;;;;;;-145.41;100.00;58600.66;4966132;28;20034;-74
2023/04/29 05:16:45;;;;;;;10.68;8.50;;;;;;;-145.41;100.00;58600.66;4975207;28;20541;-74
2023/04/29 05:19:11;;;;;;;11.60;8.93;;;;;;;-145.41;100.00;58600.66;4966860;28;20535;-74
2023/04/29 05:21:38;;;;;;;12.23;9.38;;;;;;;-145.41;100.00;58600.66;4964289;28;20070;-74
2023/04/29 05:24:07;;;;;;;15.05;10.02;;;;;;;-145.41;100.00;58600.66;4968390;28;20021;-74
2023/04/29 05:26:33;;;;;;;11.75;9.30;;;;;;;-145.41;100.00;58600.66;4980296;28;20035;-74
2023/04/29 05:29:00;;;;;;;12.77;10.30;;;;;;;-145.41;100.00;58600.66;4966929;28;20117;-74
2023/04/29 05:31:27;;;;;;;13.35;10.63;;;;;;;-145.41;100.00;58600.66;4980038;28;20500;-74
2023/04/29 05:33:53;;;;;;;13.55;11.15;;;;;;;-145.41;100.00;58600.66;4950490;28;20034;-74
2023/04/29 05:36:19;;;;;;;12.88;10.63;;;;;;;-145.41;100.00;58600.66;4964268;28;20110;-74
2023/04/29 05:38:44;;;;;;;15.55;11.18;;;;;;;-145.41;100.00;58600.66;4983447;28;20038;-74
2023/04/29 05:41:10;;;;;;;12.80;10.10;;;;;;;-145.41;100.00;58600.66;4968012;28;20026;-74
2023/04/29 05:44:04;;;;;;;15.00;11.38;;;;;;;-145.41;100.00;58600.66;4971109;28;20043;-74
2023/04/29 05:46:30;;;;;;;11.65;9.85;;;;;;;-145.41;100.00;58600.66;4965840;28;20034;-74
2023/04/29 05:48:56;;;;;;;15.00;11.60;;;;;;;-145.41;100.00;58600.66;4980903;28;20034;-73
2023/04/29 05:51:21;;;;;;;15.52;11.00;;;;;;;-145.41;100.00;58600.66;4982815;28;20109;-73
2023/04/29 05:53:48;;;;;;;15.40;11.70;;;;;;;-145.41;100.00;58600.66;4964928;28;20042;-74
2023/04/29 05:56:15;;;;;;;20.80;14.65;;;;;;;-145.41;100.00;58600.66;4965033;28;20551;-74
2023/04/29 05:58:40;;;;;;;17.92;13.65;;;;;;;-145.41;100.00;58600.66;4949065;28;20081;-74
2023/04/29 06:01:06;;;;;;;20.60;16.00;;;;;;;-145.41;100.00;58600.66;4967367;28;20038;-74
2023/04/29 06:03:31;;;;;;;17.25;12.55;;;;;;;-145.41;100.00;58600.66;4981132;28;20038;-73
2023/04/29 06:06:19;;;;;;;17.98;15.10;;;;;;;-145.41;100.00;58600.66;4964503;28;20041;-73
2023/04/29 06:08:59;;;;;;;18.65;14.98;;;;;;;-145.41;100.00;58600.66;4963008;28;20041;-73
2023/04/29 06:11:27;;;;;;;18.50;13.60;;;;;;;-145.41;100.00;58600.66;4980213;28;20038;-73
2023/04/29 06:13:52;;;;;;;18.58;13.57;;;;;;;-145.41;100.00;58600.66;4970236;28;20034;-73
2023/04/29 06:16:18;;;;;;;20.02;16.35;;;;;;;-145.41;100.00;58600.66;4982484;28;20500;-73
2023/04/29 06:18:43;;;;;;;19.95;15.20;;;;;;;-145.41;100.00;58600.66;4979771;28;20527;-73
2023/04/29 06:21:08;;;;;;;15.38;12.55;;;;;;;-145.41;100.00;58600.66;4966240;28;20089;-73
2023/04/29 06:23:35;;;;;;;22.88;16.50;;;;;;;-145.41;100.00;58600.66;4969294;28;20270;-73
2023/04/29 06:26:06;;;;;;;20.58;14.85;;;;;;;-145.41;100.00;58600.66;4980394;28;20386;-73
2023/04/29 06:28:31;;;;;;;22.88;18.98;;;;;;;-145.41;100.00;58600.66;4966499;28;20037;-73
2023/04/29 06:30:57;;;;;;;20.92;17.48;;;;;;;-145.41;100.00;58600.66;4970189;28;20026;-73
2023/04/29 06:33:22;;;;;;;23.02;17.33;;;;;;;-145.41;100.00;58600.66;4968626;28;20581;-73
2023/04/29 06:35:48;;;;;;;17.48;14.15;;;;;;;-145.41;100.00;58600.66;4969402;28;20088;-73
2023/04/29 06:38:36;;;;;;;20.88;14.95;;;;;;;-145.41;100.00;58600.66;4966242;28;20053;-73
2023/04/29 06:41:24;;;;;;;11.95;10.30;;;;;;;-145.41;100.00;58600.66;4967975;28;20035;-73
2023/04/29 06:43:49;;;;;;;15.95;12.80;;;;;;;-145.41;100.00;58600.66;4983884;28;20125;-73
2023/04/29 06:46:15;;;;;;;11.95;10.23;;;;;;;-145.41;100.00;58600.66;4986907;28;20031;-73
2023/04/29 06:48:55;;;;;;;13.77;10.82;;;;;;;-145.41;100.00;58600.66;4973438;28;20497;-73
2023/04/29 06:51:21;;;;;;;11.55;10.07;;;;;;;-145.41;100.00;58600.66;4966833;28;20174;-73
2023/04/29 06:53:47;;;;;;;14.00;11.55;;;;;;;-145.41;100.00;58600.66;4982377;28;20129;-73
2023/04/29 06:56:12;;;;;;;14.30;10.57;;;;;;;-145.41;100.00;58600.66;4986963;28;20124;-72
2023/04/29 06:58:38;;;;;;;14.13;10.15;;;;;;;-145.41;100.00;58600.66;4973321;28;20029;-72
2023/04/29 07:01:07;;;;;;;13.02;10.32;;;;;;;-145.41;100.00;58600.66;4983359;28;20038;-73
2023/04/29 07:03:32;;;;;;;13.63;10.35;;;;;;;-145.41;100.00;58600.66;4985103;28;20040;-72
2023/04/29 07:05:58;;;;;;;14.45;11.30;;;;;;;-145.41;100.00;58600.66;4988435;28;20109;-72
2023/04/29 07:08:24;;;;;;;16.48;12.75;;;;;;;-145.41;100.00;58600.66;4973828;28;20404;-72
2023/04/29 07:10:55;;;;;;;16.67;11.15;;;;;;;-145.41;100.00;58600.66;4962354;28;20037;-73
2023/04/29 07:13:23;;;;;;;15.32;12.30;;;;;;;-145.41;100.00;58600.66;4982380;28;20042;-72
2023/04/29 07:15:49;;;;;;;14.13;11.15;;;;;;;-145.41;100.00;58600.66;4969019;28;20048;-72
2023/04/29 07:18:15;;;;;;;17.08;13.85;;;;;;;-145.41;100.00;58600.66;4979152;28;20038;-72
2023/04/29 07:20:40;;;;;;;15.85;12.63;;;;;;;-145.41;100.00;58600.66;4973769;28;20044;-73
2023/04/29 07:23:06;;;;;;;17.15;12.82;;;;;;;-145.41;100.00;58600.66;4980478;28;20409;-73
2023/04/29 07:25:32;;;;;;;15.75;11.70;;;;;;;-145.41;100.00;58600.66;4984104;28;20031;-73
2023/04/29 07:27:58;;;;;;;13.88;11.30;;;;;;;-145.41;100.00;58600.66;4965875;28;20054;-73
2023/04/29 07:30:24;;;;;;;17.02;13.70;;;;;;;-145.41;100.00;58600.66;4964897;28;20035;-73
2023/04/29 07:32:50;;;;;;;17.30;12.25;;;;;;;-145.41;100.00;58600.66;4967766;28;20400;-73
2023/04/29 07:35:17;;;;;;;16.05;12.18;;;;;;;-145.41;100.00;58600.66;4972368;28;20026;-73
2023/04/29 07:37:43;;;;;;;14.43;11.45;;;;;;;-145.41;100.00;58600.66;4985538;28;20042;-73
2023/04/29 07:40:09;;;;;;;19.02;14.40;;;;;;;-145.41;100.00;58600.66;4966426;28;20085;-72
2023/04/29 07:42:34;;;;;;;16.30;12.65;;;;;;;-145.41;100.00;58600.66;4984415;28;20026;-73
2023/04/29 07:45:04;;;;;;;17.10;13.85;;;;;;;-145.41;100.00;58600.66;4972039;28;20038;-73
2023/04/29 07:47:29;;;;;;;18.90;14.35;;;;;;;-145.41;100.00;58600.66;4984667;28;20034;-72
2023/04/29 07:49:56;;;;;;;20.98;15.98;;;;;;;-145.41;100.00;58600.66;4976524;28;20084;-73
2023/04/29 07:52:21;;;;;;;17.35;13.32;;;;;;;-145.41;100.00;58600.66;4986451;28;20477;-73
2023/04/29 07:54:48;;;;;;;17.50;13.73;;;;;;;-145.41;100.00;58600.66;4970247;28;20030;-73
2023/04/29 07:57:13;;;;;;;16.48;12.40;;;;;;;-145.41;100.00;58600.66;4986439;28;20030;-73
2023/04/29 07:59:38;;;;;;;16.00;12.63;;;;;;;-145.41;100.00;58600.66;4985658;28;20425;-73
2023/04/29 08:02:04;;;;;;;18.40;12.43;;;;;;;-145.41;100.00;58600.66;4967315;28;20039;-73
2023/04/29 08:04:29;;;;;;;15.95;13.32;;;;;;;-145.41;100.00;58600.66;4967390;28;20045;-73
2023/04/29 08:07:03;;;;;;;15.48;12.90;;;;;;;-145.41;100.00;58600.66;4969400;28;20035;-73
2023/04/29 08:09:28;;;;;;;16.70;12.18;;;;;;;-145.41;100.00;58600.66;4966514;28;20031;-73
2023/04/29 08:11:54;;;;;;;16.17;11.85;;;;;;;-145.41;100.00;58600.66;4984432;28;20121;-73
2023/04/29 08:14:19;;;;;;;16.20;12.75;;;;;;;-145.41;100.00;58600.66;4968448;28;20086;-73
2023/04/29 08:16:45;;;;;;;15.90;12.48;;;;;;;-145.41;100.00;58600.66;4970700;28;20061;-73
2023/04/29 08:19:10;;;;;;;16.00;12.60;;;;;;;-145.41;100.00;58600.66;4967303;28;20027;-73
2023/04/29 08:21:36;;;;;;;15.40;12.35;;;;;;;-145.41;100.00;58600.66;4986352;28;20027;-73
2023/04/29 08:24:01;;;;;;;16.58;12.20;;;;;;;-145.41;100.00;58600.66;4983527;28;20030;-73
2023/04/29 08:26:26;;;;;;;14.93;12.45;;;;;;;-145.41;100.00;58600.66;4987355;28;20122;-73
2023/04/29 08:28:52;;;;;;;14.82;11.70;;;;;;;-145.41;100.00;58600.66;4985457;28;20046;-73
2023/04/29 08:31:19;;;;;;;14.55;11.55;;;;;;;-145.41;100.00;58600.66;4983349;28;20452;-72
2023/04/29 08:33:45;;;;;;;13.73;10.93;;;;;;;-145.41;100.00;58600.66;4984766;28;20129;-73
2023/04/29 08:36:10;;;;;;;15.60;11.80;;;;;;;-145.41;100.00;58600.66;4985687;28;20121;-75
2023/04/29 08:38:36;;;;;;;14.15;10.88;;;;;;;-145.41;100.00;58600.66;4984538;28;20070;-76
2023/04/29 08:41:01;;;;;;;14.40;10.75;;;;;;;-145.41;100.00;58600.66;4985987;28;20061;-75
2023/04/29 08:43:28;;;;;;;15.73;12.55;;;;;;;-145.41;100.00;58600.66;4982101;28;20104;-75
2023/04/29 08:45:54;;;;;;;13.80;10.80;;;;;;;-145.41;100.00;58600.66;4986017;28;20062;-75
2023/04/29 08:48:20;;;;;;;13.95;10.85;;;;;;;-145.41;100.00;58600.66;4966372;28;20042;-75
2023/04/29 08:50:45;;;;;;;13.75;10.05;;;;;;;-145.41;100.00;58600.66;4985234;28;20049;-75
2023/04/29 08:53:12;;;;;;;11.60;9.57;;;;;;;-145.41;100.00;58600.66;4985358;28;20104;-75
2023/04/29 08:55:41;;;;;;;12.48;9.80;;;;;;;-145.41;100.00;58600.66;4985592;28;20050;-75
2023/04/29 08:58:07;;;;;;;12.93;9.98;;;;;;;-145.41;100.00;58600.66;4986393;28;20456;-75
2023/04/29 09:00:34;;;;;;;14.75;10.52;;;;;;;-145.41;100.00;58600.66;4982210;28;20039;-75
2023/04/29 09:03:04;;;;;;;12.45;9.65;;;;;;;-145.41;100.00;58600.66;4984351;28;20080;-75
2023/04/29 09:05:32;;;;;;;15.13;10.63;;;;;;;-145.41;100.00;58600.66;4989738;28;20096;-75
2023/04/29 09:08:00;;;;;;;13.02;9.95;;;;;;;-145.41;100.00;58600.66;4987983;28;20106;-78
2023/04/29 09:10:26;;;;;;;13.98;11.43;;;;;;;-145.41;100.00;58600.66;4970238;28;20048;-78
2023/04/29 09:12:56;;;;;;;15.63;11.10;;;;;;;-145.41;100.00;58600.66;4975732;28;20429;-77
2023/04/29 09:15:21;;;;;;;15.43;11.60;;;;;;;-145.41;100.00;58600.66;4986663;28;20100;-77
2023/04/29 09:17:47;;;;;;;18.25;13.40;;;;;;;-145.41;100.00;58600.66;4989109;28;20038;-77
2023/04/29 09:20:19;;;;;;;17.33;12.60;;;;;;;-145.41;100.00;58600.66;4985268;28;20417;-78
2023/04/29 09:22:47;;;;;;;17.90;12.90;;;;;;;-145.41;100.00;58600.66;4988317;28;20033;-78
2023/04/29 09:25:12;;;;;;;14.90;11.68;;;;;;;-145.41;100.00;58600.66;4986337;28;20120;-77
2023/04/29 09:27:38;;;;;;;17.17;13.10;;;;;;;-145.41;100.00;58600.66;4967159;28;20231;-78
2023/04/29 09:30:04;;;;;;;16.50;12.20;;;;;;;-145.41;100.00;58600.66;4983375;28;20070;-77
2023/04/29 09:32:29;;;;;;;15.88;12.48;;;;;;;-145.41;100.00;58600.66;4982809;28;20039;-77
2023/04/29 09:34:55;;;;;;;14.93;11.77;;;;;;;-145.41;100.00;58600.66;4985350;28;20476;-77
2023/04/29 09:37:26;;;;;;;15.85;11.80;;;;;;;-145.41;100.00;58600.66;4981667;28;20032;-77
2023/04/29 09:39:52;;;;;;;13.20;10.70;;;;;;;-145.41;100.00;58600.66;4982454;28;20088;-77
2023/04/29 09:42:18;;;;;;;15.88;11.10;;;;;;;-145.41;100.00;58600.66;4964971;28;20026;-77
2023/04/29 09:44:44;;;;;;;13.88;10.27;;;;;;;-145.41;100.00;58600.66;4984265;28;20109;-78
2023/04/29 09:47:09;;;;;;;17.02;13.43;;;;;;;-145.41;100.00;58600.66;4975271;28;20042;-78
2023/04/29 09:49:39;;;;;;;13.10;10.27;;;;;;;-145.41;100.00;58600.66;4966214;28;20051;-78
2023/04/29 09:52:10;;;;;;;11.55;9.98;;;;;;;-145.41;100.00;58600.66;4980085;28;20038;-76
2023/04/29 09:54:37;;;;;;;10.85;7.70;;;;;;;-145.41;100.00;58600.66;4980690;28;20050;-76
2023/04/29 09:57:04;;;;;;;9.77;7.00;;;;;;;-145.41;100.00;58600.66;4988037;28;20041;-75
2023/04/29 09:59:30;;;;;;;8.48;6.13;;;;;;;-145.41;100.00;58600.66;4982522;28;20706;-75
2023/04/29 10:01:57;;;;;;;8.52;5.80;;;;;;;-145.41;100.00;58600.66;4981878;28;20042;-75
2023/04/29 10:04:25;;;;;;;7.60;5.97;;;;;;;-145.41;100.00;58600.66;4982203;28;20050;-76
2023/04/29 10:06:53;;;;;;;6.97;5.47;;;;;;;-145.41;100.00;58600.66;4984202;28;20038;-75
2023/04/29 10:09:19;;;;;;;6.68;5.07;;;;;;;-145.41;100.00;58600.66;4981252;28;20038;-76
2023/04/29 10:11:49;;;;;;;10.50;6.35;;;;;;;-145.41;100.00;58600.66;4983118;28;20042;-75
2023/04/29 10:14:23;;;;;;;12.57;7.97;;;;;;;-145.41;100.00;58600.66;4980499;28;20045;-76
2023/04/29 10:16:58;;;;;;;9.40;6.78;;;;;;;-145.41;100.00;58600.66;4997751;23;20149;-76
2023/04/29 10:19:37;;;;;;;8.57;6.18;;;;;;;-145.41;100.00;58600.66;4979302;28;20392;-76
2023/04/29 10:22:15;;;;;;;10.43;7.53;;;;;;;-145.41;100.00;58600.66;4982591;28;20501;-76
2023/04/29 10:24:42;;;;;;;11.05;6.90;;;;;;;-145.41;100.00;58600.66;4983242;28;20125;-75
2023/04/29 10:27:11;;;;;;;11.18;7.40;;;;;;;-145.41;100.00;58600.66;4986747;28;20034;-76
2023/04/29 10:29:38;;;;;;;10.00;6.90;;;;;;;-145.41;100.00;58600.66;4967490;28;20038;-76
2023/04/29 10:32:08;;;;;;;11.55;6.78;;;;;;;-145.41;100.00;58600.66;4983278;28;20113;-76
2023/04/29 10:34:36;;;;;;;8.80;6.32;;;;;;;-145.41;100.00;58600.66;4973446;28;20042;-76
2023/04/29 10:37:01;;;;;;;9.38;6.30;;;;;;;-145.41;100.00;58600.66;4984110;28;20034;-76
2023/04/29 10:39:38;;;;;;;7.75;5.90;;;;;;;-145.41;100.00;58600.66;4983425;28;20049;-76
2023/04/29 10:42:16;;;;;;;9.02;6.18;;;;;;;-145.41;100.00;58600.66;4982137;28;20035;-75
2023/04/29 10:45:19;;;;;;;8.30;6.05;;;;;;;-145.41;100.00;58600.66;4980814;28;20039;-76
2023/04/29 10:48:08;;;;;;;9.98;6.35;;;;;;;-145.41;100.00;58600.66;4985344;28;20037;-76
2023/04/29 10:50:58;;;;;;;9.25;6.30;;;;;;;-145.41;100.00;58600.66;4987970;28;20039;-75
2023/04/29 10:53:24;;;;;;;8.95;6.90;;;;;;;-145.41;100.00;58600.66;4980043;28;20038;-76
2023/04/29 10:55:55;;;;;;;9.77;6.28;;;;;;;-145.41;100.00;58600.66;4983966;28;20049;-76
2023/04/29 10:58:45;;;;;;;11.00;7.83;;;;;;;-145.41;100.00;58600.66;4984851;28;20034;-76
2023/04/29 11:01:15;;;;;;;9.05;6.57;;;;;;;-145.41;100.00;58600.66;4980205;28;20038;-76
2023/04/29 11:03:57;;;;;;;8.73;6.65;;;;;;;-145.41;100.00;58600.66;4984965;28;20412;-75
2023/04/29 11:06:40;;;;;;;8.13;6.05;;;;;;;-145.41;100.00;58600.66;4984014;28;20035;-76